sensor_id;sensor_type;location;lat;lon;timestamp;P1;durP1;ratioP1;P2;durP2;ratioP2
71977;SDS011;59848;48.158;11.512;2022-07-29T00:00:11;2.65;;;1.30;;
71977;SDS011;59848;48.158;11.512;2022-07-29T00:02:37;2.13;;;1.48;;
71977;SDS011;59848;48.158;11.512;2022-07-29T00:05:03;2.40;;;1.20;;
71977;SDS011;59848;48.158;11.512;2022-07-29T00:07:29;3.42;;;1.40;;
71977;SDS011;59848;48.158;11.512;2022-07-29T00:09:54;3.15;;;1.45;;
71977;SDS011;59848;48.158;11.512;2022-07-29T00:12:20;1.73;;;1.45;;
71977;SDS011;59848;48.158;11.512;2022-07-29T00:14:47;2.33;;;1.80;;
71977;SDS011;59848;48.158;11.512;2022-07-29T00:17:13;3.33;;;1.70;;
71977;SDS011;59848;48.158;11.512;2022-07-29T00:19:38;2.42;;;1.60;;
71977;SDS011;59848;48.158;11.512;2022-07-29T00:22:04;2.17;;;1.60;;
71977;SDS011;59848;48.158;11.512;2022-07-29T00:24:29;4.40;;;1.77;;
71977;SDS011;59848;48.158;11.512;2022-07-29T00:26:55;3.58;;;1.80;;
71977;SDS011;59848;48.158;11.512;2022-07-29T00:29:21;2.60;;;1.95;;
71977;SDS011;59848;48.158;11.512;2022-07-29T00:31:46;4.03;;;1.80;;
71977;SDS011;59848;48.158;11.512;2022-07-29T00:34:12;2.60;;;1.98;;
71977;SDS011;59848;48.158;11.512;2022-07-29T00:36:56;4.72;;;1.70;;
71977;SDS011;59848;48.158;11.512;2022-07-29T00:39:22;3.55;;;1.90;;
71977;SDS011;59848;48.158;11.512;2022-07-29T00:41:48;2.55;;;1.95;;
71977;SDS011;59848;48.158;11.512;2022-07-29T00:44:14;2.42;;;1.75;;
71977;SDS011;59848;48.158;11.512;2022-07-29T00:46:40;2.47;;;1.65;;
71977;SDS011;59848;48.158;11.512;2022-07-29T00:49:05;3.00;;;2.03;;
71977;SDS011;59848;48.158;11.512;2022-07-29T00:51:37;2.72;;;1.73;;
71977;SDS011;59848;48.158;11.512;2022-07-29T00:54:04;2.95;;;1.60;;
71977;SDS011;59848;48.158;11.512;2022-07-29T00:56:30;2.90;;;1.75;;
71977;SDS011;59848;48.158;11.512;2022-07-29T00:58:57;2.03;;;1.73;;
71977;SDS011;59848;48.158;11.512;2022-07-29T01:01:23;3.05;;;2.03;;
71977;SDS011;59848;48.158;11.512;2022-07-29T01:03:49;2.08;;;1.60;;
71977;SDS011;59848;48.158;11.512;2022-07-29T01:06:15;2.70;;;1.77;;
71977;SDS011;59848;48.158;11.512;2022-07-29T01:08:42;3.63;;;1.70;;
71977;SDS011;59848;48.158;11.512;2022-07-29T01:11:08;2.33;;;1.70;;
71977;SDS011;59848;48.158;11.512;2022-07-29T01:13:34;1.85;;;1.50;;
71977;SDS011;59848;48.158;11.512;2022-07-29T01:16:03;3.00;;;1.40;;
71977;SDS011;59848;48.158;11.512;2022-07-29T01:18:37;1.63;;;1.40;;
71977;SDS011;59848;48.158;11.512;2022-07-29T01:26:45;2.72;;;1.48;;
71977;SDS011;59848;48.158;11.512;2022-07-29T01:29:30;1.38;;;1.17;;
71977;SDS011;59848;48.158;11.512;2022-07-29T01:32:18;1.27;;;1.10;;
71977;SDS011;59848;48.158;11.512;2022-07-29T01:37:29;1.55;;;1.10;;
71977;SDS011;59848;48.158;11.512;2022-07-29T01:40:06;3.00;;;1.20;;
71977;SDS011;59848;48.158;11.512;2022-07-29T01:42:47;1.63;;;1.20;;
71977;SDS011;59848;48.158;11.512;2022-07-29T01:47:54;1.30;;;1.05;;
71977;SDS011;59848;48.158;11.512;2022-07-29T01:50:26;1.20;;;1.10;;
71977;SDS011;59848;48.158;11.512;2022-07-29T01:53:02;1.80;;;1.05;;
71977;SDS011;59848;48.158;11.512;2022-07-29T01:55:38;1.95;;;1.13;;
71977;SDS011;59848;48.158;11.512;2022-07-29T01:58:07;2.25;;;1.38;;
71977;SDS011;59848;48.158;11.512;2022-07-29T02:00:35;1.10;;;1.00;;
71977;SDS011;59848;48.158;11.512;2022-07-29T02:03:02;1.90;;;1.17;;
71977;SDS011;59848;48.158;11.512;2022-07-29T02:05:32;1.35;;;1.10;;
71977;SDS011;59848;48.158;11.512;2022-07-29T02:08:00;2.03;;;1.25;;
71977;SDS011;59848;48.158;11.512;2022-07-29T02:10:27;2.30;;;1.20;;
71977;SDS011;59848;48.158;11.512;2022-07-29T02:12:56;1.65;;;1.17;;
71977;SDS011;59848;48.158;11.512;2022-07-29T02:15:24;1.48;;;1.17;;
71977;SDS011;59848;48.158;11.512;2022-07-29T02:17:53;3.00;;;1.40;;
71977;SDS011;59848;48.158;11.512;2022-07-29T02:20:23;1.25;;;1.15;;
71977;SDS011;59848;48.158;11.512;2022-07-29T02:22:51;1.40;;;1.20;;
71977;SDS011;59848;48.158;11.512;2022-07-29T02:25:19;1.70;;;1.27;;
71977;SDS011;59848;48.158;11.512;2022-07-29T02:27:47;1.77;;;1.00;;
71977;SDS011;59848;48.158;11.512;2022-07-29T02:30:16;1.42;;;1.10;;
71977;SDS011;59848;48.158;11.512;2022-07-29T02:32:42;2.20;;;1.25;;
71977;SDS011;59848;48.158;11.512;2022-07-29T02:35:10;1.48;;;1.10;;
71977;SDS011;59848;48.158;11.512;2022-07-29T02:37:38;1.40;;;1.20;;
71977;SDS011;59848;48.158;11.512;2022-07-29T02:40:06;2.00;;;1.23;;
71977;SDS011;59848;48.158;11.512;2022-07-29T02:42:36;1.20;;;0.98;;
71977;SDS011;59848;48.158;11.512;2022-07-29T02:45:04;1.80;;;1.40;;
71977;SDS011;59848;48.158;11.512;2022-07-29T02:47:32;1.60;;;1.30;;
71977;SDS011;59848;48.158;11.512;2022-07-29T02:52:47;2.13;;;1.20;;
71977;SDS011;59848;48.158;11.512;2022-07-29T02:55:30;1.35;;;1.10;;
71977;SDS011;59848;48.158;11.512;2022-07-29T02:58:00;1.85;;;1.33;;
71977;SDS011;59848;48.158;11.512;2022-07-29T03:00:38;2.38;;;1.40;;
71977;SDS011;59848;48.158;11.512;2022-07-29T03:03:07;2.30;;;1.50;;
71977;SDS011;59848;48.158;11.512;2022-07-29T03:05:37;1.63;;;1.40;;
71977;SDS011;59848;48.158;11.512;2022-07-29T03:08:03;1.42;;;1.30;;
71977;SDS011;59848;48.158;11.512;2022-07-29T03:10:30;1.80;;;1.13;;
71977;SDS011;59848;48.158;11.512;2022-07-29T03:12:56;2.72;;;1.80;;
71977;SDS011;59848;48.158;11.512;2022-07-29T03:15:23;1.75;;;1.35;;
71977;SDS011;59848;48.158;11.512;2022-07-29T03:17:49;2.47;;;1.60;;
71977;SDS011;59848;48.158;11.512;2022-07-29T03:20:15;1.77;;;1.48;;
71977;SDS011;59848;48.158;11.512;2022-07-29T03:22:43;1.45;;;1.33;;
71977;SDS011;59848;48.158;11.512;2022-07-29T03:25:11;3.70;;;1.30;;
71977;SDS011;59848;48.158;11.512;2022-07-29T03:27:42;2.55;;;1.65;;
71977;SDS011;59848;48.158;11.512;2022-07-29T03:30:09;1.85;;;1.45;;
71977;SDS011;59848;48.158;11.512;2022-07-29T03:32:35;1.88;;;1.33;;
71977;SDS011;59848;48.158;11.512;2022-07-29T03:35:01;3.92;;;1.60;;
71977;SDS011;59848;48.158;11.512;2022-07-29T03:37:28;2.33;;;1.73;;
71977;SDS011;59848;48.158;11.512;2022-07-29T03:39:55;1.60;;;1.40;;
71977;SDS011;59848;48.158;11.512;2022-07-29T03:42:23;1.75;;;1.65;;
71977;SDS011;59848;48.158;11.512;2022-07-29T03:44:51;2.58;;;1.60;;
71977;SDS011;59848;48.158;11.512;2022-07-29T03:47:20;1.80;;;1.60;;
71977;SDS011;59848;48.158;11.512;2022-07-29T03:49:48;2.55;;;1.80;;
71977;SDS011;59848;48.158;11.512;2022-07-29T03:52:16;3.25;;;1.77;;
71977;SDS011;59848;48.158;11.512;2022-07-29T03:54:42;3.05;;;1.75;;
71977;SDS011;59848;48.158;11.512;2022-07-29T03:57:08;4.85;;;2.10;;
71977;SDS011;59848;48.158;11.512;2022-07-29T03:59:36;2.40;;;1.90;;
71977;SDS011;59848;48.158;11.512;2022-07-29T04:02:03;4.47;;;1.95;;
71977;SDS011;59848;48.158;11.512;2022-07-29T04:04:32;1.98;;;1.65;;
71977;SDS011;59848;48.158;11.512;2022-07-29T04:06:58;2.90;;;1.55;;
71977;SDS011;59848;48.158;11.512;2022-07-29T04:09:24;2.10;;;1.90;;
71977;SDS011;59848;48.158;11.512;2022-07-29T04:11:49;2.90;;;2.00;;
71977;SDS011;59848;48.158;11.512;2022-07-29T04:14:15;2.78;;;1.90;;
71977;SDS011;59848;48.158;11.512;2022-07-29T04:16:41;2.90;;;2.00;;
71977;SDS011;59848;48.158;11.512;2022-07-29T04:19:06;5.43;;;2.13;;
71977;SDS011;59848;48.158;11.512;2022-07-29T04:21:36;2.83;;;1.98;;
71977;SDS011;59848;48.158;11.512;2022-07-29T04:24:05;2.70;;;1.90;;
71977;SDS011;59848;48.158;11.512;2022-07-29T04:26:32;2.47;;;1.80;;
71977;SDS011;59848;48.158;11.512;2022-07-29T04:28:58;2.10;;;1.75;;
71977;SDS011;59848;48.158;11.512;2022-07-29T04:31:23;2.38;;;1.50;;
71977;SDS011;59848;48.158;11.512;2022-07-29T04:33:49;2.42;;;1.50;;
71977;SDS011;59848;48.158;11.512;2022-07-29T04:36:14;2.53;;;1.48;;
71977;SDS011;59848;48.158;11.512;2022-07-29T04:38:40;2.65;;;1.50;;
71977;SDS011;59848;48.158;11.512;2022-07-29T04:41:05;3.08;;;1.85;;
71977;SDS011;59848;48.158;11.512;2022-07-29T04:43:32;6.97;;;1.75;;
71977;SDS011;59848;48.158;11.512;2022-07-29T04:45:58;2.60;;;1.75;;
71977;SDS011;59848;48.158;11.512;2022-07-29T04:48:25;2.50;;;1.63;;
71977;SDS011;59848;48.158;11.512;2022-07-29T04:50:50;3.60;;;1.80;;
71977;SDS011;59848;48.158;11.512;2022-07-29T04:53:16;3.00;;;1.88;;
71977;SDS011;59848;48.158;11.512;2022-07-29T04:55:42;5.05;;;2.40;;
71977;SDS011;59848;48.158;11.512;2022-07-29T04:58:08;3.03;;;2.13;;
71977;SDS011;59848;48.158;11.512;2022-07-29T05:00:33;4.65;;;2.00;;
71977;SDS011;59848;48.158;11.512;2022-07-29T05:02:59;3.50;;;2.00;;
71977;SDS011;59848;48.158;11.512;2022-07-29T05:05:25;4.75;;;2.03;;
71977;SDS011;59848;48.158;11.512;2022-07-29T05:07:50;2.85;;;2.10;;
71977;SDS011;59848;48.158;11.512;2022-07-29T05:10:16;4.18;;;2.03;;
71977;SDS011;59848;48.158;11.512;2022-07-29T05:12:42;3.63;;;2.13;;
71977;SDS011;59848;48.158;11.512;2022-07-29T05:15:08;4.97;;;2.15;;
71977;SDS011;59848;48.158;11.512;2022-07-29T05:17:34;5.35;;;2.25;;
71977;SDS011;59848;48.158;11.512;2022-07-29T05:19:59;3.03;;;1.80;;
71977;SDS011;59848;48.158;11.512;2022-07-29T05:22:25;2.72;;;2.10;;
71977;SDS011;59848;48.158;11.512;2022-07-29T05:24:50;3.47;;;2.30;;
71977;SDS011;59848;48.158;11.512;2022-07-29T05:27:16;3.60;;;2.40;;
71977;SDS011;59848;48.158;11.512;2022-07-29T05:29:42;4.93;;;2.30;;
71977;SDS011;59848;48.158;11.512;2022-07-29T05:32:07;4.40;;;2.10;;
71977;SDS011;59848;48.158;11.512;2022-07-29T05:34:33;3.55;;;1.90;;
71977;SDS011;59848;48.158;11.512;2022-07-29T05:36:59;5.63;;;2.10;;
71977;SDS011;59848;48.158;11.512;2022-07-29T05:39:24;2.67;;;1.77;;
71977;SDS011;59848;48.158;11.512;2022-07-29T05:41:50;5.70;;;2.00;;
71977;SDS011;59848;48.158;11.512;2022-07-29T05:44:16;2.28;;;1.75;;
71977;SDS011;59848;48.158;11.512;2022-07-29T05:46:41;2.20;;;1.70;;
71977;SDS011;59848;48.158;11.512;2022-07-29T05:49:07;2.88;;;2.25;;
71977;SDS011;59848;48.158;11.512;2022-07-29T05:51:33;1.88;;;1.50;;
71977;SDS011;59848;48.158;11.512;2022-07-29T05:53:59;3.10;;;1.55;;
71977;SDS011;59848;48.158;11.512;2022-07-29T05:56:24;3.33;;;1.92;;
71977;SDS011;59848;48.158;11.512;2022-07-29T05:58:50;3.00;;;1.45;;
71977;SDS011;59848;48.158;11.512;2022-07-29T06:01:16;4.28;;;2.10;;
71977;SDS011;59848;48.158;11.512;2022-07-29T06:03:42;3.95;;;1.80;;
71977;SDS011;59848;48.158;11.512;2022-07-29T06:06:08;3.33;;;1.77;;
71977;SDS011;59848;48.158;11.512;2022-07-29T06:08:34;2.47;;;1.52;;
71977;SDS011;59848;48.158;11.512;2022-07-29T06:11:01;2.65;;;1.60;;
71977;SDS011;59848;48.158;11.512;2022-07-29T06:13:26;4.35;;;1.80;;
71977;SDS011;59848;48.158;11.512;2022-07-29T06:15:52;4.30;;;1.50;;
71977;SDS011;59848;48.158;11.512;2022-07-29T06:18:17;1.85;;;1.40;;
71977;SDS011;59848;48.158;11.512;2022-07-29T06:20:43;2.25;;;1.50;;
71977;SDS011;59848;48.158;11.512;2022-07-29T06:23:08;2.35;;;1.52;;
71977;SDS011;59848;48.158;11.512;2022-07-29T06:25:34;2.40;;;1.40;;
71977;SDS011;59848;48.158;11.512;2022-07-29T06:28:01;2.25;;;1.80;;
71977;SDS011;59848;48.158;11.512;2022-07-29T06:30:27;2.20;;;1.30;;
71977;SDS011;59848;48.158;11.512;2022-07-29T06:32:53;3.05;;;1.33;;
71977;SDS011;59848;48.158;11.512;2022-07-29T06:35:19;1.50;;;1.30;;
71977;SDS011;59848;48.158;11.512;2022-07-29T06:37:45;3.97;;;1.50;;
71977;SDS011;59848;48.158;11.512;2022-07-29T06:40:10;1.88;;;1.33;;
71977;SDS011;59848;48.158;11.512;2022-07-29T06:42:55;3.72;;;1.55;;
71977;SDS011;59848;48.158;11.512;2022-07-29T06:45:20;2.83;;;1.70;;
71977;SDS011;59848;48.158;11.512;2022-07-29T06:47:46;3.55;;;1.90;;
71977;SDS011;59848;48.158;11.512;2022-07-29T06:50:11;2.35;;;1.58;;
71977;SDS011;59848;48.158;11.512;2022-07-29T06:52:38;4.30;;;1.92;;
71977;SDS011;59848;48.158;11.512;2022-07-29T06:55:04;2.67;;;1.88;;
71977;SDS011;59848;48.158;11.512;2022-07-29T06:57:30;2.92;;;1.50;;
71977;SDS011;59848;48.158;11.512;2022-07-29T06:59:56;2.58;;;1.60;;
71977;SDS011;59848;48.158;11.512;2022-07-29T07:02:21;2.58;;;1.85;;
71977;SDS011;59848;48.158;11.512;2022-07-29T07:04:47;4.18;;;1.60;;
71977;SDS011;59848;48.158;11.512;2022-07-29T07:07:13;2.22;;;1.50;;
71977;SDS011;59848;48.158;11.512;2022-07-29T07:09:38;2.33;;;1.50;;
71977;SDS011;59848;48.158;11.512;2022-07-29T07:12:04;1.77;;;1.50;;
71977;SDS011;59848;48.158;11.512;2022-07-29T07:14:32;2.65;;;1.58;;
71977;SDS011;59848;48.158;11.512;2022-07-29T07:16:59;2.67;;;1.50;;
71977;SDS011;59848;48.158;11.512;2022-07-29T07:19:28;1.80;;;1.45;;
71977;SDS011;59848;48.158;11.512;2022-07-29T07:21:54;3.17;;;1.80;;
71977;SDS011;59848;48.158;11.512;2022-07-29T07:24:20;3.90;;;1.73;;
71977;SDS011;59848;48.158;11.512;2022-07-29T07:26:45;3.85;;;1.42;;
71977;SDS011;59848;48.158;11.512;2022-07-29T07:29:11;2.72;;;1.80;;
71977;SDS011;59848;48.158;11.512;2022-07-29T07:31:38;3.40;;;1.50;;
71977;SDS011;59848;48.158;11.512;2022-07-29T07:34:03;3.25;;;1.73;;
71977;SDS011;59848;48.158;11.512;2022-07-29T07:36:29;3.78;;;1.63;;
71977;SDS011;59848;48.158;11.512;2022-07-29T07:38:55;1.52;;;1.27;;
71977;SDS011;59848;48.158;11.512;2022-07-29T07:41:21;4.55;;;1.55;;
71977;SDS011;59848;48.158;11.512;2022-07-29T07:43:47;2.22;;;1.60;;
71977;SDS011;59848;48.158;11.512;2022-07-29T07:46:12;4.15;;;1.20;;
71977;SDS011;59848;48.158;11.512;2022-07-29T07:48:38;2.63;;;1.30;;
71977;SDS011;59848;48.158;11.512;2022-07-29T07:51:04;2.83;;;1.63;;
71977;SDS011;59848;48.158;11.512;2022-07-29T07:53:29;2.85;;;1.25;;
71977;SDS011;59848;48.158;11.512;2022-07-29T07:55:55;2.28;;;1.35;;
71977;SDS011;59848;48.158;11.512;2022-07-29T07:58:21;1.25;;;1.10;;
71977;SDS011;59848;48.158;11.512;2022-07-29T08:00:47;3.25;;;1.48;;
71977;SDS011;59848;48.158;11.512;2022-07-29T08:03:12;2.28;;;1.42;;
71977;SDS011;59848;48.158;11.512;2022-07-29T08:05:38;2.75;;;1.40;;
71977;SDS011;59848;48.158;11.512;2022-07-29T08:08:04;1.92;;;1.33;;
71977;SDS011;59848;48.158;11.512;2022-07-29T08:10:30;1.52;;;1.40;;
71977;SDS011;59848;48.158;11.512;2022-07-29T08:13:14;1.30;;;1.23;;
71977;SDS011;59848;48.158;11.512;2022-07-29T08:15:40;2.78;;;1.70;;
71977;SDS011;59848;48.158;11.512;2022-07-29T08:18:07;1.60;;;1.50;;
71977;SDS011;59848;48.158;11.512;2022-07-29T08:20:33;1.85;;;1.30;;
71977;SDS011;59848;48.158;11.512;2022-07-29T08:23:00;3.10;;;1.50;;
71977;SDS011;59848;48.158;11.512;2022-07-29T08:25:27;2.55;;;1.40;;
71977;SDS011;59848;48.158;11.512;2022-07-29T08:27:53;1.98;;;1.40;;
71977;SDS011;59848;48.158;11.512;2022-07-29T08:30:18;1.90;;;1.40;;
71977;SDS011;59848;48.158;11.512;2022-07-29T08:32:44;3.42;;;1.40;;
71977;SDS011;59848;48.158;11.512;2022-07-29T08:35:10;3.33;;;1.70;;
71977;SDS011;59848;48.158;11.512;2022-07-29T08:37:35;2.17;;;1.58;;
71977;SDS011;59848;48.158;11.512;2022-07-29T08:40:01;3.92;;;1.65;;
71977;SDS011;59848;48.158;11.512;2022-07-29T08:42:27;1.80;;;1.50;;
71977;SDS011;59848;48.158;11.512;2022-07-29T08:44:53;2.15;;;1.80;;
71977;SDS011;59848;48.158;11.512;2022-07-29T08:47:20;3.58;;;1.75;;
71977;SDS011;59848;48.158;11.512;2022-07-29T08:49:46;2.33;;;1.60;;
71977;SDS011;59848;48.158;11.512;2022-07-29T08:52:13;2.58;;;1.65;;
71977;SDS011;59848;48.158;11.512;2022-07-29T08:54:43;2.33;;;1.85;;
71977;SDS011;59848;48.158;11.512;2022-07-29T08:57:10;3.55;;;2.00;;
71977;SDS011;59848;48.158;11.512;2022-07-29T08:59:39;3.50;;;1.80;;
71977;SDS011;59848;48.158;11.512;2022-07-29T09:02:08;3.10;;;2.10;;
71977;SDS011;59848;48.158;11.512;2022-07-29T09:04:42;2.10;;;1.90;;
71977;SDS011;59848;48.158;11.512;2022-07-29T09:07:07;3.25;;;2.00;;
71977;SDS011;59848;48.158;11.512;2022-07-29T09:09:34;3.47;;;1.80;;
71977;SDS011;59848;48.158;11.512;2022-07-29T09:12:00;2.78;;;1.90;;
71977;SDS011;59848;48.158;11.512;2022-07-29T09:14:26;3.00;;;1.70;;
71977;SDS011;59848;48.158;11.512;2022-07-29T09:16:53;4.25;;;1.95;;
71977;SDS011;59848;48.158;11.512;2022-07-29T09:19:24;2.47;;;1.80;;
71977;SDS011;59848;48.158;11.512;2022-07-29T09:21:57;2.05;;;1.85;;
71977;SDS011;59848;48.158;11.512;2022-07-29T09:24:26;3.63;;;1.80;;
71977;SDS011;59848;48.158;11.512;2022-07-29T09:27:01;2.63;;;2.13;;
71977;SDS011;59848;48.158;11.512;2022-07-29T09:29:27;2.67;;;2.10;;
71977;SDS011;59848;48.158;11.512;2022-07-29T09:31:53;3.22;;;2.10;;
71977;SDS011;59848;48.158;11.512;2022-07-29T09:34:26;2.72;;;2.10;;
71977;SDS011;59848;48.158;11.512;2022-07-29T09:36:54;4.05;;;2.00;;
71977;SDS011;59848;48.158;11.512;2022-07-29T09:39:27;2.67;;;2.03;;
71977;SDS011;59848;48.158;11.512;2022-07-29T09:41:54;3.47;;;2.17;;
71977;SDS011;59848;48.158;11.512;2022-07-29T09:44:21;3.97;;;2.53;;
71977;SDS011;59848;48.158;11.512;2022-07-29T09:47:00;3.60;;;2.30;;
71977;SDS011;59848;48.158;11.512;2022-07-29T09:49:52;2.65;;;2.20;;
71977;SDS011;59848;48.158;11.512;2022-07-29T09:52:19;3.22;;;2.30;;
71977;SDS011;59848;48.158;11.512;2022-07-29T09:54:45;2.60;;;2.10;;
71977;SDS011;59848;48.158;11.512;2022-07-29T09:57:21;3.30;;;2.30;;
71977;SDS011;59848;48.158;11.512;2022-07-29T09:59:57;4.50;;;2.35;;
71977;SDS011;59848;48.158;11.512;2022-07-29T10:02:30;3.83;;;2.33;;
71977;SDS011;59848;48.158;11.512;2022-07-29T10:04:57;2.40;;;2.17;;
71977;SDS011;59848;48.158;11.512;2022-07-29T10:07:23;4.05;;;2.50;;
71977;SDS011;59848;48.158;11.512;2022-07-29T10:09:55;3.50;;;2.20;;
71977;SDS011;59848;48.158;11.512;2022-07-29T10:12:22;2.83;;;2.30;;
71977;SDS011;59848;48.158;11.512;2022-07-29T10:14:48;2.70;;;1.92;;
71977;SDS011;59848;48.158;11.512;2022-07-29T10:17:14;3.08;;;2.20;;
71977;SDS011;59848;48.158;11.512;2022-07-29T10:19:41;4.13;;;2.20;;
71977;SDS011;59848;48.158;11.512;2022-07-29T10:22:08;3.63;;;2.17;;
71977;SDS011;59848;48.158;11.512;2022-07-29T10:24:36;2.83;;;2.45;;
71977;SDS011;59848;48.158;11.512;2022-07-29T10:27:03;2.58;;;2.30;;
71977;SDS011;59848;48.158;11.512;2022-07-29T10:29:31;4.20;;;2.72;;
71977;SDS011;59848;48.158;11.512;2022-07-29T10:34:36;5.05;;;2.67;;
71977;SDS011;59848;48.158;11.512;2022-07-29T10:43:23;3.80;;;2.35;;
71977;SDS011;59848;48.158;11.512;2022-07-29T10:45:54;3.08;;;2.30;;
71977;SDS011;59848;48.158;11.512;2022-07-29T10:48:22;2.97;;;2.50;;
71977;SDS011;59848;48.158;11.512;2022-07-29T10:50:55;2.92;;;2.30;;
71977;SDS011;59848;48.158;11.512;2022-07-29T10:53:23;6.00;;;2.70;;
71977;SDS011;59848;48.158;11.512;2022-07-29T10:55:50;3.13;;;2.50;;
71977;SDS011;59848;48.158;11.512;2022-07-29T10:58:18;3.17;;;2.40;;
71977;SDS011;59848;48.158;11.512;2022-07-29T11:00:46;3.53;;;2.42;;
71977;SDS011;59848;48.158;11.512;2022-07-29T11:06:11;3.78;;;2.53;;
71977;SDS011;59848;48.158;11.512;2022-07-29T11:08:38;4.20;;;2.05;;
71977;SDS011;59848;48.158;11.512;2022-07-29T11:16:11;2.97;;;2.30;;
71977;SDS011;59848;48.158;11.512;2022-07-29T11:21:41;2.35;;;2.15;;
71977;SDS011;59848;48.158;11.512;2022-07-29T11:24:15;6.72;;;2.25;;
71977;SDS011;59848;48.158;11.512;2022-07-29T11:26:59;3.33;;;2.28;;
71977;SDS011;59848;48.158;11.512;2022-07-29T11:29:39;7.00;;;2.40;;
71977;SDS011;59848;48.158;11.512;2022-07-29T11:32:13;2.60;;;2.10;;
71977;SDS011;59848;48.158;11.512;2022-07-29T11:34:40;2.75;;;2.30;;
71977;SDS011;59848;48.158;11.512;2022-07-29T11:39:39;2.53;;;2.17;;
71977;SDS011;59848;48.158;11.512;2022-07-29T11:47:35;2.50;;;2.28;;
71977;SDS011;59848;48.158;11.512;2022-07-29T11:50:03;3.22;;;2.13;;
71977;SDS011;59848;48.158;11.512;2022-07-29T11:52:39;4.78;;;2.17;;
71977;SDS011;59848;48.158;11.512;2022-07-29T11:55:11;9.05;;;2.45;;
71977;SDS011;59848;48.158;11.512;2022-07-29T11:57:54;3.33;;;2.20;;
71977;SDS011;59848;48.158;11.512;2022-07-29T12:00:28;4.20;;;2.22;;
71977;SDS011;59848;48.158;11.512;2022-07-29T12:02:56;2.83;;;2.25;;
71977;SDS011;59848;48.158;11.512;2022-07-29T12:05:38;4.93;;;2.42;;
71977;SDS011;59848;48.158;11.512;2022-07-29T12:08:04;2.30;;;2.10;;
71977;SDS011;59848;48.158;11.512;2022-07-29T12:10:39;3.47;;;2.45;;
71977;SDS011;59848;48.158;11.512;2022-07-29T12:13:05;2.47;;;2.20;;
71977;SDS011;59848;48.158;11.512;2022-07-29T12:15:31;6.20;;;2.33;;
71977;SDS011;59848;48.158;11.512;2022-07-29T12:17:57;4.57;;;2.30;;
71977;SDS011;59848;48.158;11.512;2022-07-29T12:20:27;2.22;;;1.90;;
71977;SDS011;59848;48.158;11.512;2022-07-29T12:22:53;5.33;;;2.43;;
71977;SDS011;59848;48.158;11.512;2022-07-29T12:25:20;2.53;;;2.20;;
71977;SDS011;59848;48.158;11.512;2022-07-29T12:27:56;4.80;;;2.40;;
71977;SDS011;59848;48.158;11.512;2022-07-29T12:30:24;4.13;;;2.20;;
71977;SDS011;59848;48.158;11.512;2022-07-29T12:33:10;5.70;;;2.40;;
71977;SDS011;59848;48.158;11.512;2022-07-29T12:35:48;4.00;;;2.58;;
71977;SDS011;59848;48.158;11.512;2022-07-29T12:38:18;2.95;;;2.22;;
71977;SDS011;59848;48.158;11.512;2022-07-29T12:40:45;4.82;;;2.42;;
71977;SDS011;59848;48.158;11.512;2022-07-29T12:43:13;2.05;;;1.83;;
71977;SDS011;59848;48.158;11.512;2022-07-29T12:45:45;2.83;;;2.38;;
71977;SDS011;59848;48.158;11.512;2022-07-29T12:48:12;2.15;;;1.90;;
71977;SDS011;59848;48.158;11.512;2022-07-29T12:50:58;2.92;;;2.03;;
71977;SDS011;59848;48.158;11.512;2022-07-29T12:53:25;3.05;;;2.45;;
71977;SDS011;59848;48.158;11.512;2022-07-29T12:55:52;3.95;;;2.60;;
71977;SDS011;59848;48.158;11.512;2022-07-29T12:58:33;3.97;;;1.90;;
71977;SDS011;59848;48.158;11.512;2022-07-29T13:01:13;2.78;;;2.22;;
71977;SDS011;59848;48.158;11.512;2022-07-29T13:03:44;5.68;;;2.45;;
71977;SDS011;59848;48.158;11.512;2022-07-29T13:09:02;3.75;;;2.50;;
71977;SDS011;59848;48.158;11.512;2022-07-29T13:11:42;3.50;;;2.20;;
71977;SDS011;59848;48.158;11.512;2022-07-29T13:17:05;2.80;;;2.13;;
71977;SDS011;59848;48.158;11.512;2022-07-29T13:19:45;4.32;;;2.67;;
71977;SDS011;59848;48.158;11.512;2022-07-29T13:22:13;3.88;;;2.33;;
71977;SDS011;59848;48.158;11.512;2022-07-29T13:24:53;2.60;;;2.33;;
71977;SDS011;59848;48.158;11.512;2022-07-29T13:27:24;7.28;;;2.30;;
71977;SDS011;59848;48.158;11.512;2022-07-29T13:29:51;4.65;;;2.50;;
71977;SDS011;59848;48.158;11.512;2022-07-29T13:32:18;4.25;;;2.58;;
71977;SDS011;59848;48.158;11.512;2022-07-29T13:34:44;3.63;;;2.53;;
71977;SDS011;59848;48.158;11.512;2022-07-29T13:37:10;5.18;;;2.30;;
71977;SDS011;59848;48.158;11.512;2022-07-29T13:39:36;4.45;;;2.35;;
71977;SDS011;59848;48.158;11.512;2022-07-29T13:42:02;2.50;;;2.25;;
71977;SDS011;59848;48.158;11.512;2022-07-29T13:44:28;6.15;;;2.30;;
71977;SDS011;59848;48.158;11.512;2022-07-29T13:46:54;4.93;;;2.60;;
71977;SDS011;59848;48.158;11.512;2022-07-29T13:49:20;3.95;;;2.40;;
71977;SDS011;59848;48.158;11.512;2022-07-29T13:51:46;6.70;;;2.20;;
71977;SDS011;59848;48.158;11.512;2022-07-29T13:54:11;3.38;;;2.05;;
71977;SDS011;59848;48.158;11.512;2022-07-29T13:56:37;4.05;;;2.38;;
71977;SDS011;59848;48.158;11.512;2022-07-29T13:59:02;4.25;;;1.88;;
71977;SDS011;59848;48.158;11.512;2022-07-29T14:01:28;3.70;;;2.08;;
71977;SDS011;59848;48.158;11.512;2022-07-29T14:03:55;4.82;;;2.28;;
71977;SDS011;59848;48.158;11.512;2022-07-29T14:06:20;2.92;;;1.92;;
71977;SDS011;59848;48.158;11.512;2022-07-29T14:08:46;2.78;;;1.70;;
71977;SDS011;59848;48.158;11.512;2022-07-29T14:11:11;6.82;;;2.00;;
71977;SDS011;59848;48.158;11.512;2022-07-29T14:13:37;1.67;;;1.58;;
71977;SDS011;59848;48.158;11.512;2022-07-29T14:16:02;2.17;;;1.65;;
71977;SDS011;59848;48.158;11.512;2022-07-29T14:18:28;3.05;;;1.83;;
71977;SDS011;59848;48.158;11.512;2022-07-29T14:20:54;2.97;;;1.80;;
71977;SDS011;59848;48.158;11.512;2022-07-29T14:23:19;2.97;;;1.67;;
71977;SDS011;59848;48.158;11.512;2022-07-29T14:25:45;2.58;;;1.80;;
71977;SDS011;59848;48.158;11.512;2022-07-29T14:28:11;2.65;;;1.70;;
71977;SDS011;59848;48.158;11.512;2022-07-29T14:30:36;3.83;;;1.77;;
71977;SDS011;59848;48.158;11.512;2022-07-29T14:33:02;2.90;;;2.08;;
71977;SDS011;59848;48.158;11.512;2022-07-29T14:35:27;2.30;;;1.77;;
71977;SDS011;59848;48.158;11.512;2022-07-29T14:37:53;2.45;;;1.98;;
71977;SDS011;59848;48.158;11.512;2022-07-29T14:40:19;2.28;;;2.00;;
71977;SDS011;59848;48.158;11.512;2022-07-29T14:42:44;2.53;;;2.00;;
71977;SDS011;59848;48.158;11.512;2022-07-29T14:45:10;3.65;;;2.10;;
71977;SDS011;59848;48.158;11.512;2022-07-29T14:47:36;3.20;;;2.00;;
71977;SDS011;59848;48.158;11.512;2022-07-29T14:50:03;2.63;;;1.80;;
71977;SDS011;59848;48.158;11.512;2022-07-29T14:52:29;4.13;;;2.20;;
71977;SDS011;59848;48.158;11.512;2022-07-29T14:54:54;4.18;;;2.13;;
71977;SDS011;59848;48.158;11.512;2022-07-29T14:57:20;2.97;;;2.20;;
71977;SDS011;59848;48.158;11.512;2022-07-29T14:59:45;4.53;;;2.30;;
71977;SDS011;59848;48.158;11.512;2022-07-29T15:02:11;4.80;;;2.25;;
71977;SDS011;59848;48.158;11.512;2022-07-29T15:04:36;3.10;;;2.10;;
71977;SDS011;59848;48.158;11.512;2022-07-29T15:07:02;4.97;;;2.30;;
71977;SDS011;59848;48.158;11.512;2022-07-29T15:09:28;4.30;;;2.47;;
71977;SDS011;59848;48.158;11.512;2022-07-29T15:11:53;3.63;;;2.35;;
71977;SDS011;59848;48.158;11.512;2022-07-29T15:14:19;3.15;;;2.08;;
71977;SDS011;59848;48.158;11.512;2022-07-29T15:16:44;4.28;;;2.20;;
71977;SDS011;59848;48.158;11.512;2022-07-29T15:19:10;3.05;;;2.28;;
71977;SDS011;59848;48.158;11.512;2022-07-29T15:21:36;4.53;;;2.53;;
71977;SDS011;59848;48.158;11.512;2022-07-29T15:24:01;3.45;;;2.35;;